createdAt,value
2023-10-20T00:00:16.022Z,97623.75
2023-10-20T00:02:44.576Z,97618.22
2023-10-20T00:05:15.334Z,97613.59
2023-10-20T00:07:43.154Z,97612.09
2023-10-20T00:10:12.865Z,97612.59
2023-10-20T00:12:41.253Z,97625.41
2023-10-20T00:15:15.002Z,97621.72
2023-10-20T00:17:43.846Z,97619.25
2023-10-20T00:20:14.012Z,97622.91
2023-10-20T00:22:42.649Z,97615.09
2023-10-20T00:25:13.050Z,97620.91
2023-10-20T00:27:42.403Z,97599.28
2023-10-20T00:30:12.554Z,97609.09
2023-10-20T00:32:41.525Z,97608.09
2023-10-20T00:35:10.753Z,97590.63
2023-10-20T00:37:40.261Z,97584.31
2023-10-20T00:40:11.023Z,97578.00
2023-10-20T00:42:39.615Z,97574.50
2023-10-20T00:45:09.507Z,97559.16
2023-10-20T00:47:40.507Z,97566.03
2023-10-20T00:50:12.777Z,97566.34
2023-10-20T00:52:45.183Z,97560.19
2023-10-20T00:55:15.887Z,97547.38
2023-10-20T00:57:45.715Z,97556.34
2023-10-20T01:00:15.150Z,97548.88
2023-10-20T01:02:43.261Z,97550.56
2023-10-20T01:05:16.194Z,97544.56
2023-10-20T01:07:45.954Z,97537.72
2023-10-20T01:10:15.086Z,97538.56
2023-10-20T01:12:43.033Z,97538.72
2023-10-20T01:15:12.370Z,97537.56
2023-10-20T01:17:40.682Z,97535.22
2023-10-20T01:20:10.273Z,97534.53
2023-10-20T01:22:37.975Z,97537.03
2023-10-20T01:25:08.262Z,97544.19
2023-10-20T01:27:36.649Z,97515.25
2023-10-20T01:30:04.924Z,97524.91
2023-10-20T01:32:32.760Z,97529.22
2023-10-20T01:35:01.382Z,97521.06
2023-10-20T01:37:29.737Z,97475.47
2023-10-20T01:39:57.607Z,97503.59
2023-10-20T01:42:26.982Z,97494.13
2023-10-20T01:44:54.659Z,97491.47
2023-10-20T01:47:22.319Z,97495.13
2023-10-20T01:49:50.766Z,97493.44
2023-10-20T01:52:18.894Z,97488.13
2023-10-20T01:54:47.213Z,97473.50
2023-10-20T01:57:14.922Z,97460.66
2023-10-20T01:59:43.880Z,97468.84
2023-10-20T02:02:12.770Z,97448.22
2023-10-20T02:04:40.475Z,97450.22
2023-10-20T02:07:08.200Z,97443.06
2023-10-20T02:09:35.929Z,97444.75
2023-10-20T02:12:05.227Z,97432.44
2023-10-20T02:14:34.395Z,97435.78
2023-10-20T02:17:03.849Z,97413.47
2023-10-20T02:19:32.190Z,97399.34
2023-10-20T02:22:00.993Z,97406.69
2023-10-20T02:24:29.149Z,97394.53
2023-10-20T02:26:56.949Z,97393.22
2023-10-20T02:29:24.887Z,97389.22
2023-10-20T02:31:52.897Z,97385.88
2023-10-20T02:34:22.058Z,97383.41
2023-10-20T02:36:50.430Z,97370.28
2023-10-20T02:39:18.348Z,97375.59
2023-10-20T02:41:46.353Z,97348.66
2023-10-20T02:44:15.019Z,97346.16
2023-10-20T02:46:43.182Z,97347.47
2023-10-20T02:49:11.164Z,97359.28
2023-10-20T02:51:40.577Z,97364.13
2023-10-20T02:54:11.065Z,97354.31
2023-10-20T02:56:38.993Z,97329.22
2023-10-20T02:59:06.741Z,97336.34
2023-10-20T03:01:34.435Z,97342.19
2023-10-20T03:04:02.364Z,97337.84
2023-10-20T03:06:30.137Z,97330.19
2023-10-20T03:08:59.231Z,97325.22
2023-10-20T03:11:27.042Z,97309.09
2023-10-20T03:13:54.774Z,97316.41
2023-10-20T03:16:22.495Z,97302.63
2023-10-20T03:18:50.198Z,97297.81
2023-10-20T03:21:21.836Z,97292.81
2023-10-20T03:23:49.465Z,97287.97
2023-10-20T03:26:20.231Z,97286.66
2023-10-20T03:28:48.024Z,97287.81
2023-10-20T03:31:16.478Z,97282.03
2023-10-20T03:33:44.240Z,97284.31
2023-10-20T03:36:13.438Z,97279.38
2023-10-20T03:38:42.170Z,97278.88
2023-10-20T03:41:11.500Z,97276.22
2023-10-20T03:43:40.635Z,97266.41
2023-10-20T03:46:08.338Z,97252.78
2023-10-20T03:48:36.930Z,97257.91
2023-10-20T03:51:08.768Z,97243.13
2023-10-20T03:53:47.413Z,97242.47
2023-10-20T03:56:16.626Z,97231.16
2023-10-20T03:58:47.771Z,97214.91
2023-10-20T04:01:16.353Z,97225.69
2023-10-20T04:03:51.691Z,97219.72
2023-10-20T04:06:20.333Z,97210.41
2023-10-20T04:08:48.293Z,97206.75
2023-10-20T04:11:15.967Z,97204.44
2023-10-20T04:13:45.437Z,97192.97
2023-10-20T04:16:14.903Z,97187.47
2023-10-20T04:18:43.677Z,97168.91
2023-10-20T04:21:13.337Z,97155.09
2023-10-20T04:23:41.470Z,97160.25
2023-10-20T04:26:20.401Z,97151.59
2023-10-20T04:29:03.890Z,97135.31
2023-10-20T04:31:49.746Z,97121.72
2023-10-20T04:34:35.218Z,97111.09
2023-10-20T04:37:20.715Z,97112.44
2023-10-20T04:40:06.106Z,97119.25
2023-10-20T04:42:56.753Z,97108.63
2023-10-20T04:45:54.799Z,97107.63
2023-10-20T04:48:32.843Z,97098.97
2023-10-20T04:51:10.648Z,97071.06
2023-10-20T04:53:49.943Z,97069.44
2023-10-20T04:56:32.400Z,97073.25
2023-10-20T04:59:05.844Z,97062.13
2023-10-20T05:01:44.588Z,97054.66
2023-10-20T05:04:17.516Z,97059.28
2023-10-20T05:06:46.185Z,97068.09
2023-10-20T05:09:16.749Z,97070.28
2023-10-20T05:11:44.407Z,97068.25
2023-10-20T05:14:12.187Z,97052.81
2023-10-20T05:16:41.408Z,97060.31
2023-10-20T05:19:09.115Z,97051.66
2023-10-20T05:21:39.424Z,97039.06
2023-10-20T05:24:09.514Z,97034.59
2023-10-20T05:26:37.429Z,97025.09
2023-10-20T05:29:05.299Z,97008.81
2023-10-20T05:31:33.367Z,97003.16
2023-10-20T05:34:03.463Z,96991.25
2023-10-20T05:36:31.953Z,96994.72
2023-10-20T05:39:00.925Z,96978.28
2023-10-20T05:41:31.501Z,96981.91
2023-10-20T05:43:59.415Z,96981.75
2023-10-20T05:46:27.195Z,96966.16
2023-10-20T05:48:55.451Z,96966.16
2023-10-20T05:51:25.123Z,96959.53
2023-10-20T05:53:54.403Z,96946.91
2023-10-20T05:56:22.431Z,96932.63
2023-10-20T05:58:51.243Z,96924.66
2023-10-20T06:01:19.544Z,96900.31
2023-10-20T06:03:47.773Z,96902.28
2023-10-20T06:06:15.748Z,96909.25
2023-10-20T06:08:45.159Z,96929.34
2023-10-20T06:11:13.090Z,96923.88
2023-10-20T06:13:40.908Z,96938.97
2023-10-20T06:16:11.756Z,96949.91
2023-10-20T06:18:41.022Z,96953.75
2023-10-20T06:21:14.074Z,96947.25
2023-10-20T06:23:42.514Z,96941.94
2023-10-20T06:26:12.286Z,96934.81
2023-10-20T06:28:40.163Z,96925.84
2023-10-20T06:31:28.875Z,96930.00
2023-10-20T06:34:01.923Z,96937.16
2023-10-20T06:36:30.058Z,96935.31
2023-10-20T06:38:57.912Z,96925.69
2023-10-20T06:41:27.938Z,96893.88
2023-10-20T06:43:55.967Z,96917.88
2023-10-20T06:46:26.265Z,96895.69
2023-10-20T06:48:53.972Z,96892.66
2023-10-20T06:51:21.725Z,96876.28
2023-10-20T06:53:49.975Z,96855.19
2023-10-20T06:56:22.091Z,96843.09
2023-10-20T06:58:56.305Z,96839.44
2023-10-20T07:01:24.021Z,96828.34
2023-10-20T07:03:51.880Z,96819.72
2023-10-20T07:06:19.981Z,96806.31
2023-10-20T07:08:49.567Z,96780.63
2023-10-20T07:11:17.684Z,96785.53
2023-10-20T07:13:45.987Z,96763.88
2023-10-20T07:16:15.356Z,96789.50
2023-10-20T07:18:44.111Z,96789.50
2023-10-20T07:21:13.080Z,96785.50
2023-10-20T07:23:40.748Z,96772.22
2023-10-20T07:26:08.706Z,96775.88
2023-10-20T07:28:36.622Z,96774.88
2023-10-20T07:31:13.436Z,96773.75
2023-10-20T07:33:42.963Z,96786.84
2023-10-20T07:36:12.119Z,96777.22
2023-10-20T07:38:40.587Z,96783.22
2023-10-20T07:41:12.445Z,96791.38
2023-10-20T07:43:40.569Z,96798.47
2023-10-20T07:46:16.626Z,96795.81
2023-10-20T07:48:46.148Z,96783.88
2023-10-20T07:51:14.099Z,96785.84
2023-10-20T07:53:42.288Z,96791.81
2023-10-20T07:56:11.008Z,96776.28
2023-10-20T07:58:38.856Z,96785.34
2023-10-20T08:01:07.841Z,96781.84
2023-10-20T08:03:36.023Z,96775.53
2023-10-20T08:06:06.940Z,96781.69
2023-10-20T08:08:35.663Z,96778.84
2023-10-20T08:11:07.857Z,96771.34
2023-10-20T08:13:36.013Z,96750.94
2023-10-20T08:16:05.368Z,96746.22
2023-10-20T08:18:35.254Z,96747.50
2023-10-20T08:21:11.909Z,96744.56
2023-10-20T08:23:40.628Z,96749.16
2023-10-20T08:26:15.149Z,96756.97
2023-10-20T08:28:43.057Z,96765.09
2023-10-20T08:31:14.357Z,96763.81
2023-10-20T08:33:42.328Z,96763.34
2023-10-20T08:36:14.009Z,96754.59
2023-10-20T08:38:42.400Z,96754.19
2023-10-20T08:41:14.000Z,96778.88
2023-10-20T08:43:42.709Z,96780.63
2023-10-20T08:46:11.384Z,96792.56
2023-10-20T08:48:40.957Z,96789.19
2023-10-20T08:51:10.179Z,96791.47
2023-10-20T08:53:39.953Z,96783.16
2023-10-20T08:56:09.668Z,96777.53
2023-10-20T08:58:37.977Z,96794.09
2023-10-20T09:01:08.606Z,96780.16
2023-10-20T09:03:42.087Z,96776.03
2023-10-20T09:06:13.498Z,96792.91
2023-10-20T09:08:44.828Z,96809.03
2023-10-20T09:11:14.239Z,96805.19
2023-10-20T09:13:47.759Z,96806.66
2023-10-20T09:16:17.208Z,96814.69
2023-10-20T09:18:50.760Z,96812.81
2023-10-20T09:21:19.833Z,96815.94
2023-10-20T09:24:02.078Z,96804.66
2023-10-20T09:26:31.976Z,96807.97
2023-10-20T09:29:00.444Z,96809.53
2023-10-20T09:31:31.544Z,96811.31
2023-10-20T09:34:00.246Z,96821.13
2023-10-20T09:36:32.437Z,96819.06
2023-10-20T09:39:06.172Z,96822.56
2023-10-20T09:41:38.583Z,96814.84
2023-10-20T09:44:08.857Z,96814.38
2023-10-20T09:46:46.989Z,96814.84
2023-10-20T09:49:20.569Z,96822.81
2023-10-20T09:51:53.654Z,96816.03
2023-10-20T09:54:26.969Z,96817.16
2023-10-20T09:56:56.529Z,96798.72
2023-10-20T09:59:29.564Z,96805.25
2023-10-20T10:02:00.095Z,96823.22
2023-10-20T10:04:34.837Z,96852.69
2023-10-20T10:07:06.258Z,96894.25
2023-10-20T10:09:40.275Z,96890.78
2023-10-20T10:12:15.834Z,96895.31
2023-10-20T10:14:56.961Z,96909.41
2023-10-20T10:17:27.601Z,96904.66
2023-10-20T10:19:57.586Z,96914.34
2023-10-20T10:22:29.644Z,96913.78
2023-10-20T10:25:04.679Z,96912.97
2023-10-20T10:27:34.035Z,96901.44
2023-10-20T10:30:06.654Z,96906.03
2023-10-20T10:32:35.985Z,96889.66
2023-10-20T10:35:05.607Z,96889.75
2023-10-20T10:37:35.821Z,96874.34
2023-10-20T10:40:09.906Z,96859.84
2023-10-20T10:42:45.078Z,96855.53
2023-10-20T10:45:24.148Z,96853.97
2023-10-20T10:47:53.675Z,96858.38
2023-10-20T10:50:22.620Z,96862.44
2023-10-20T10:52:53.524Z,96859.19
2023-10-20T10:55:27.010Z,96828.63
2023-10-20T10:57:55.667Z,96858.81
2023-10-20T11:00:29.704Z,96849.63
2023-10-20T11:02:59.615Z,96815.75
2023-10-20T11:05:28.378Z,96844.22
2023-10-20T11:08:02.875Z,96846.88
2023-10-20T11:10:35.889Z,96849.53
2023-10-20T11:13:08.324Z,96865.34
2023-10-20T11:15:37.065Z,96838.63
2023-10-20T11:18:07.235Z,96862.28
2023-10-20T11:20:39.272Z,96864.28
2023-10-20T11:23:10.750Z,96862.00
2023-10-20T11:25:42.832Z,96821.78
2023-10-20T11:28:17.558Z,96841.34
2023-10-20T11:30:47.060Z,96843.56
2023-10-20T11:33:18.935Z,96866.78
2023-10-20T11:35:47.193Z,96849.41
2023-10-20T11:38:16.348Z,96845.19
2023-10-20T11:40:51.784Z,96843.47
2023-10-20T11:43:19.715Z,96811.59
2023-10-20T11:45:47.607Z,96822.69
2023-10-20T11:48:15.800Z,96830.91
2023-10-20T11:50:47.810Z,96833.13
2023-10-20T11:53:16.078Z,96820.50
2023-10-20T11:55:45.774Z,96836.09
2023-10-20T11:58:14.026Z,96854.16
2023-10-20T12:00:43.757Z,96851.25
2023-10-20T12:03:11.944Z,96852.53
2023-10-20T12:05:40.924Z,96839.41
2023-10-20T12:08:08.848Z,96842.16
2023-10-20T12:10:36.710Z,96846.41
2023-10-20T12:13:06.683Z,96825.31
2023-10-20T12:15:35.769Z,96830.28
2023-10-20T12:18:04.228Z,96841.25
2023-10-20T12:20:32.574Z,96838.16
2023-10-20T12:23:00.976Z,96855.94
2023-10-20T12:25:28.705Z,96866.34
2023-10-20T12:27:56.644Z,96865.78
2023-10-20T12:30:27.685Z,96859.94
2023-10-20T12:32:55.702Z,96872.88
2023-10-20T12:35:23.630Z,96878.78
2023-10-20T12:37:51.649Z,96879.16
2023-10-20T12:40:19.700Z,96877.06
2023-10-20T12:42:47.390Z,96882.75
2023-10-20T12:45:15.246Z,96882.19
2023-10-20T12:47:44.628Z,96882.75
2023-10-20T12:50:12.840Z,96888.25
2023-10-20T12:52:40.545Z,96890.50
2023-10-20T12:55:12.396Z,96892.97
2023-10-20T12:57:41.442Z,96886.44
2023-10-20T13:00:12.103Z,96896.91
2023-10-20T13:02:41.521Z,96892.97
2023-10-20T13:05:11.560Z,96894.81
2023-10-20T13:07:40.004Z,96882.31
2023-10-20T13:10:09.615Z,96866.94
2023-10-20T13:12:37.358Z,96866.75
2023-10-20T13:15:05.752Z,96884.09
2023-10-20T13:17:34.615Z,96884.56
2023-10-20T13:20:02.442Z,96904.19
2023-10-20T13:22:32.464Z,96914.78
2023-10-20T13:25:23.073Z,96900.88
2023-10-20T13:27:52.271Z,96914.25
2023-10-20T13:30:20.234Z,96915.91
2023-10-20T13:32:48.068Z,96929.44
2023-10-20T13:35:17.621Z,96923.00
2023-10-20T13:37:46.765Z,96909.66
2023-10-20T13:40:14.719Z,96888.91
2023-10-20T13:42:42.641Z,96915.38
2023-10-20T13:45:10.960Z,96929.25
2023-10-20T13:47:41.337Z,96929.94
2023-10-20T13:50:10.444Z,96934.53
2023-10-20T13:52:38.676Z,96895.41
2023-10-20T13:55:09.745Z,96923.59
2023-10-20T13:57:37.440Z,96915.97
2023-10-20T14:00:08.878Z,96915.09
2023-10-20T14:02:37.054Z,96902.63
2023-10-20T14:05:08.953Z,96906.22
2023-10-20T14:07:37.261Z,96894.72
2023-10-20T14:10:06.133Z,96899.22
2023-10-20T14:12:35.563Z,96909.31
2023-10-20T14:15:04.900Z,96917.69
2023-10-20T14:17:33.525Z,96916.03
2023-10-20T14:20:04.549Z,96934.72
2023-10-20T14:22:33.394Z,96948.84
2023-10-20T14:25:01.909Z,96956.75
2023-10-20T14:27:29.944Z,96980.53
2023-10-20T14:29:59.583Z,96979.72
2023-10-20T14:32:27.718Z,96989.13
2023-10-20T14:34:56.200Z,97008.19
2023-10-20T14:37:25.075Z,96984.59
2023-10-20T14:39:53.338Z,97013.34
2023-10-20T14:42:21.179Z,97021.28
2023-10-20T14:44:51.473Z,97044.59
2023-10-20T14:47:20.789Z,97042.50
2023-10-20T14:49:48.637Z,97046.09
2023-10-20T14:52:17.298Z,97056.69
2023-10-20T14:54:45.818Z,97068.94
2023-10-20T14:57:13.619Z,97069.28
2023-10-20T14:59:41.405Z,97076.19
2023-10-20T15:02:09.244Z,97082.28
2023-10-20T15:04:38.535Z,97074.81
2023-10-20T15:07:06.965Z,97081.28
2023-10-20T15:09:34.803Z,97075.66
2023-10-20T15:12:03.377Z,97064.78
2023-10-20T15:14:31.208Z,97058.06
2023-10-20T15:16:58.964Z,97098.94
2023-10-20T15:19:26.799Z,97095.13
2023-10-20T15:21:55.942Z,97089.25
2023-10-20T15:24:23.617Z,97111.00
2023-10-20T15:26:52.896Z,97113.03
2023-10-20T15:29:21.306Z,97099.78
2023-10-20T15:31:49.379Z,97110.47
2023-10-20T15:34:17.776Z,97098.03
2023-10-20T15:36:50.935Z,97106.41
2023-10-20T15:39:35.979Z,97123.03
2023-10-20T15:42:11.868Z,97120.56
2023-10-20T15:44:39.776Z,97124.31
2023-10-20T15:47:07.634Z,97146.47
2023-10-20T15:49:35.787Z,97140.09
2023-10-20T15:52:04.586Z,97153.38
2023-10-20T15:54:35.719Z,97178.38
2023-10-20T15:57:04.417Z,97175.75
2023-10-20T15:59:34.016Z,97185.22
2023-10-20T16:02:02.006Z,97193.59
2023-10-20T16:04:30.051Z,97200.75
2023-10-20T16:06:58.032Z,97194.94
2023-10-20T16:09:25.851Z,97201.34
2023-10-20T16:11:54.966Z,97215.63
2023-10-20T16:14:22.887Z,97217.69
2023-10-20T16:16:50.940Z,97211.25
2023-10-20T16:19:18.917Z,97231.19
2023-10-20T16:21:46.923Z,97227.59
2023-10-20T16:24:15.101Z,97240.28
2023-10-20T16:26:42.969Z,97237.66
2023-10-20T16:29:12.563Z,97242.16
2023-10-20T16:31:40.326Z,97232.56
2023-10-20T16:34:07.963Z,97238.25
2023-10-20T16:36:36.241Z,97247.91
2023-10-20T16:39:05.931Z,97247.78
2023-10-20T16:41:34.645Z,97254.94
2023-10-20T16:44:02.624Z,97264.56
2023-10-20T16:46:33.141Z,97273.25
2023-10-20T16:49:03.262Z,97270.44
2023-10-20T16:51:31.563Z,97264.78
2023-10-20T16:53:59.435Z,97272.13
2023-10-20T16:56:28.708Z,97260.69
2023-10-20T16:58:56.498Z,97263.84
2023-10-20T17:01:28.345Z,97274.31
2023-10-20T17:03:57.624Z,97276.47
2023-10-20T17:06:27.951Z,97271.47
2023-10-20T17:08:57.701Z,97292.09
2023-10-20T17:11:26.236Z,97294.78
2023-10-20T17:13:54.303Z,97304.78
2023-10-20T17:16:22.396Z,97316.56
2023-10-20T17:18:50.787Z,97321.88
2023-10-20T17:21:19.992Z,97336.03
2023-10-20T17:23:47.947Z,97340.03
2023-10-20T17:26:16.245Z,97339.31
2023-10-20T17:28:44.191Z,97330.34
2023-10-20T17:31:14.995Z,97324.69
2023-10-20T17:33:46.026Z,97324.88
2023-10-20T17:36:14.779Z,97311.09
2023-10-20T17:38:48.926Z,97320.41
2023-10-20T17:41:17.437Z,97327.72
2023-10-20T17:43:45.746Z,97330.53
2023-10-20T17:46:13.745Z,97331.03
2023-10-20T17:48:43.081Z,97328.88
2023-10-20T17:51:11.869Z,97329.38
2023-10-20T17:53:39.908Z,97319.41
2023-10-20T17:56:12.945Z,97322.91
2023-10-20T17:58:40.792Z,97331.06
2023-10-20T18:01:10.798Z,97336.22
2023-10-20T18:03:42.295Z,97340.69
2023-10-20T18:06:11.716Z,97348.16
2023-10-20T18:08:40.298Z,97345.34
2023-10-20T18:11:11.449Z,97342.50
2023-10-20T18:13:43.472Z,97348.97
2023-10-20T18:16:13.814Z,97343.97
2023-10-20T18:18:42.700Z,97349.50
2023-10-20T18:21:10.673Z,97358.13
2023-10-20T18:23:40.394Z,97357.63
2023-10-20T18:26:09.982Z,97360.63
2023-10-20T18:28:38.085Z,97371.94
2023-10-20T18:31:13.609Z,97371.09
2023-10-20T18:33:42.662Z,97363.28
2023-10-20T18:36:13.651Z,97361.97
2023-10-20T18:38:41.552Z,97367.28
2023-10-20T18:41:16.414Z,97356.97
2023-10-20T18:43:44.421Z,97353.66
2023-10-20T18:46:14.047Z,97350.50
2023-10-20T18:48:42.436Z,97365.13
2023-10-20T18:51:12.934Z,97359.63
2023-10-20T18:53:43.652Z,97375.59
2023-10-20T18:56:11.846Z,97367.28
2023-10-20T18:58:41.240Z,97385.25
2023-10-20T19:01:09.110Z,97382.56
2023-10-20T19:03:37.463Z,97389.72
2023-10-20T19:06:12.114Z,97379.91
2023-10-20T19:08:40.688Z,97394.22
2023-10-20T19:11:11.524Z,97393.22
2023-10-20T19:13:41.326Z,97375.25
2023-10-20T19:16:09.230Z,97387.56
2023-10-20T19:18:37.351Z,97392.06
2023-10-20T19:21:12.438Z,97393.88
2023-10-20T19:23:41.904Z,97383.72
2023-10-20T19:26:12.471Z,97377.88
2023-10-20T19:28:41.979Z,97404.16
2023-10-20T19:31:10.671Z,97417.44
2023-10-20T19:33:39.453Z,97413.78
2023-10-20T19:36:11.301Z,97413.78
2023-10-20T19:38:39.807Z,97413.47
2023-10-20T19:41:09.452Z,97420.47
2023-10-20T19:43:37.152Z,97418.78
2023-10-20T19:46:08.653Z,97418.25
2023-10-20T19:48:38.374Z,97433.38
2023-10-20T19:51:07.006Z,97441.03
2023-10-20T19:53:36.100Z,97434.56
2023-10-20T19:56:03.950Z,97420.06
2023-10-20T19:58:31.676Z,97443.38
2023-10-20T20:00:59.832Z,97429.34
2023-10-20T20:03:29.349Z,97447.50
2023-10-20T20:06:10.218Z,97452.59
2023-10-20T20:08:38.289Z,97432.94
2023-10-20T20:11:06.082Z,97448.25
2023-10-20T20:13:34.367Z,97447.13
2023-10-20T20:16:12.989Z,97449.41
2023-10-20T20:18:45.176Z,97450.56
2023-10-20T20:21:13.553Z,97446.22
2023-10-20T20:23:41.449Z,97462.34
2023-10-20T20:26:09.463Z,97464.00
2023-10-20T20:28:37.846Z,97459.88
2023-10-20T20:31:05.818Z,97459.34
2023-10-20T20:33:34.031Z,97453.63
2023-10-20T20:36:04.072Z,97453.34
2023-10-20T20:38:32.099Z,97455.19
2023-10-20T20:41:00.119Z,97462.44
2023-10-20T20:43:28.252Z,97449.31
2023-10-20T20:45:57.709Z,97448.88
2023-10-20T20:48:25.785Z,97452.66
2023-10-20T20:50:53.664Z,97444.31
2023-10-20T20:53:22.722Z,97462.06
2023-10-20T20:55:50.729Z,97470.56
2023-10-20T20:58:18.404Z,97464.44
2023-10-20T21:00:46.207Z,97466.94
2023-10-20T21:03:14.719Z,97471.25
2023-10-20T21:05:42.999Z,97476.44
2023-10-20T21:08:11.154Z,97479.22
2023-10-20T21:10:40.464Z,97461.25
2023-10-20T21:13:08.591Z,97483.09
2023-10-20T21:15:37.966Z,97473.22
2023-10-20T21:18:07.425Z,97478.78
2023-10-20T21:20:38.502Z,97474.47
2023-10-20T21:23:06.317Z,97457.44
2023-10-20T21:25:37.351Z,97470.13
2023-10-20T21:28:07.667Z,97463.25
2023-10-20T21:30:37.707Z,97451.44
2023-10-20T21:33:05.707Z,97457.75
2023-10-20T21:35:38.692Z,97460.75
2023-10-20T21:38:07.159Z,97454.75
2023-10-20T21:40:34.991Z,97456.75
2023-10-20T21:43:04.638Z,97458.94
2023-10-20T21:45:33.816Z,97459.56
2023-10-20T21:48:01.832Z,97450.69
2023-10-20T21:50:29.803Z,97445.53
2023-10-20T21:52:57.500Z,97470.00
2023-10-20T21:55:25.330Z,97464.84
2023-10-20T21:57:53.335Z,97472.88
2023-10-20T22:00:24.706Z,97464.06
2023-10-20T22:02:53.936Z,97480.00
2023-10-20T22:05:21.840Z,97481.00
2023-10-20T22:07:49.532Z,97482.19
2023-10-20T22:10:17.385Z,97477.50
2023-10-20T22:12:45.684Z,97478.84
2023-10-20T22:15:13.510Z,97481.16
2023-10-20T22:17:41.796Z,97487.66
2023-10-20T22:20:11.829Z,97489.28
2023-10-20T22:22:39.517Z,97469.88
2023-10-20T22:25:07.862Z,97503.19
2023-10-20T22:27:35.522Z,97498.53
2023-10-20T22:30:03.258Z,97487.31
2023-10-20T22:32:32.305Z,97502.59
2023-10-20T22:35:02.736Z,97499.94
2023-10-20T22:37:32.121Z,97493.47
2023-10-20T22:40:00.250Z,97513.91
2023-10-20T22:42:28.262Z,97513.06
2023-10-20T22:44:57.322Z,97512.25
2023-10-20T22:47:25.638Z,97510.16
2023-10-20T22:49:53.429Z,97517.81
2023-10-20T22:52:21.319Z,97492.66
2023-10-20T22:54:50.362Z,97500.72
2023-10-20T22:57:18.054Z,97477.88
2023-10-20T22:59:45.798Z,97470.41
2023-10-20T23:02:13.732Z,97478.38
2023-10-20T23:04:41.574Z,97483.56
2023-10-20T23:07:09.490Z,97487.06
2023-10-20T23:09:37.285Z,97477.53
2023-10-20T23:12:07.349Z,97461.06
2023-10-20T23:14:35.724Z,97480.38
2023-10-20T23:17:03.524Z,97466.22
2023-10-20T23:19:31.186Z,97479.84
2023-10-20T23:21:59.031Z,97477.34
2023-10-20T23:24:26.918Z,97475.19
2023-10-20T23:26:55.231Z,97472.00
2023-10-20T23:29:24.855Z,97478.16
2023-10-20T23:31:52.727Z,97490.97
2023-10-20T23:34:20.429Z,97487.47
2023-10-20T23:36:48.094Z,97478.66
2023-10-20T23:39:16.166Z,97479.66
2023-10-20T23:41:43.797Z,97478.38
2023-10-20T23:44:11.660Z,97481.31
2023-10-20T23:46:40.670Z,97463.16
2023-10-20T23:49:08.342Z,97478.31
2023-10-20T23:51:36.667Z,97467.00
2023-10-20T23:54:04.574Z,97469.03
2023-10-20T23:56:32.248Z,97476.84
2023-10-20T23:59:00.214Z,97468.72
